Admiral Hornblower — WSQ7555 — position and weather

sailwx.info

Track history (hours):
 
Tides and Currents Weather Stations Pressure Air Temp Water Temp Dewpoint Dewpoint Depression Visibility Wind Speed Wind Dir Waves Ship Positions

Admiral Hornblower

Owner: Hornblower Cruises and Events, San Diego, CA. More information available from US FCC via Universal Licensing System and Coast Guard Vessel Documentation Center.

Last reported at 2017-Oct-18 05:13 UTC. Time now 2017-Oct-18 09:37 UTC.
Position N 32°43' W 117°10'.

Length 46 m; draft 3.6 m.

Type: Passenger vessel. MMSI: 366970120.

Date/timePositionNaut miles runAvg speedWind from/ knotsBaromVisibWave heightAir tempDewpointWater temp
2017-Oct-18 05:13N 32°43' W 117°10'0 0.2
2017-Oct-18 04:53N 32°43' W 117°10'2 4.7
2017-Oct-18 04:25N 32°41' W 117°09'  
2017-Oct-15 03:14N 32°43' W 117°10'1 2.3
2017-Oct-15 03:00N 32°43' W 117°11'1 0.2
2017-Oct-14 23:21N 32°42' W 117°10'1 3.2
2017-Oct-14 23:01N 32°43' W 117°10'0 0.0
2017-Oct-14 22:29N 32°43' W 117°10'0 0.0
2017-Oct-14 22:00N 32°43' W 117°10'1 3.0
2017-Oct-14 21:30N 32°42' W 117°10'1 2.8
2017-Oct-14 21:01N 32°43' W 117°11'1 2.9
2017-Oct-14 20:31N 32°43' W 117°13'2 0.7
2017-Oct-14 17:28N 32°43' W 117°10'1 0.0
2017-Oct-14 06:46N 32°43' W 117°11'0 0.0
2017-Oct-14 05:54N 32°43' W 117°11'2 4.3
2017-Oct-14 05:24N 32°41' W 117°09'3 7.0
2017-Oct-14 04:59N 32°43' W 117°12'1 2.3
2017-Oct-14 04:30N 32°43' W 117°13'2 3.8
2017-Oct-14 03:58N 32°43' W 117°10'0 0.0
2017-Oct-14 03:21N 32°43' W 117°10'0 0.4
2017-Oct-14 02:54N 32°43' W 117°11'2 3.8
2017-Oct-14 02:30N 32°42' W 117°09'2 3.3
2017-Oct-14 02:00N 32°43' W 117°11'2 4.2
2017-Oct-14 01:30N 32°43' W 117°13'3 5.2
2017-Oct-14 01:00N 32°43' W 117°10'0 0.0
2017-Oct-14 00:30N 32°43' W 117°10'2 4.3
2017-Oct-13 23:56N 32°41' W 117°09'2 3.9
2017-Oct-13 23:30N 32°42' W 117°10'1 1.5
2017-Oct-13 22:56N 32°43' W 117°11'3 6.7
2017-Oct-13 22:30N 32°42' W 117°14'3 3.4
2017-Oct-13 21:42N 32°43' W 117°11'2 8.7
2017-Oct-13 21:30N 32°42' W 117°09'1 1.0
2017-Oct-13 20:59N 32°42' W 117°10'1 2.1
2017-Oct-13 20:25N 32°43' W 117°11'3 6.6
2017-Oct-13 20:00N 32°42' W 117°14'3 4.2
2017-Oct-13 19:20N 32°43' W 117°10'3 4.3
2017-Oct-13 18:42N 32°41' W 117°08'310.2
2017-Oct-13 18:27N 32°42' W 117°11'0 1.0
2017-Oct-13 18:00N 32°43' W 117°11'3 5.9
2017-Oct-13 17:30N 32°42' W 117°14'3 0.2
2017-Oct-13 04:51N 32°43' W 117°11'3 4.1
2017-Oct-13 04:09N 32°41' W 117°09'1 5.2
2017-Oct-13 04:00N 32°41' W 117°09'2 4.1
2017-Oct-13 03:30N 32°43' W 117°11'2 4.4
2017-Oct-13 03:00N 32°42' W 117°14'1 2.4
2017-Oct-13 02:30N 32°43' W 117°13'4 0.2
2017-Oct-12 04:06N 32°41' W 117°08'1 6.5
2017-Oct-12 04:00N 32°41' W 117°09'1 1.7
2017-Oct-12 03:23N 32°42' W 117°10'3 7.6
2017-Oct-12 03:00N 32°43' W 117°13'0 0.2
2017-Oct-12 02:30N 32°43' W 117°13'2 0.1
2017-Oct-10 23:51N 32°43' W 117°11'0 0.0
2017-Oct-10 05:12N 32°43' W 117°11'2 8.2
2017-Oct-10 04:55N 32°41' W 117°09'0 0.0
2017-Oct-10 02:28N 32°41' W 117°09'4 1.3
2017-Oct-09 23:39N 32°38' W 117°08'4 8.1
2017-Oct-09 23:12N 32°41' W 117°09'2 0.1
2017-Oct-09 04:51N 32°43' W 117°11'2 4.0
2017-Oct-09 04:16N 32°41' W 117°09'0 0.5
2017-Oct-09 03:59N 32°41' W 117°09'0 0.8
2017-Oct-09 03:25N 32°42' W 117°09'2 5.8
2017-Oct-09 03:00N 32°43' W 117°12'1 1.1
2017-Oct-09 02:30N 32°43' W 117°12'1 0.2
2017-Oct-08 19:08N 32°43' W 117°11'210.1
2017-Oct-08 18:57N 32°42' W 117°09'0 0.6
2017-Oct-08 18:28N 32°42' W 117°10'3 5.9
2017-Oct-08 18:00N 32°43' W 117°12'2 0.1
2017-Oct-08 06:39N 32°43' W 117°11'0 1.5
2017-Oct-08 06:25N 32°43' W 117°10'0 0.0
2017-Oct-08 05:55N 32°43' W 117°10'3 6.1
2017-Oct-08 05:30N 32°41' W 117°09'  
Track history (hours):
 
Tides and Currents Weather Stations Pressure Air Temp Water Temp Dewpoint Dewpoint Depression Visibility Wind Speed Wind Dir Waves Ship Positions

Admiral Hornblower

Owner: Hornblower Cruises and Events, San Diego, CA. More information available from US FCC via Universal Licensing System and Coast Guard Vessel Documentation Center.

Last reported at 2017-Oct-18 05:13 UTC. Time now 2017-Oct-18 09:37 UTC.
Position N 32°43' W 117°10'.

Length 46 m; draft 3.6 m.

Type: Passenger vessel. MMSI: 366970120.

Date/timePositionNaut miles runAvg speedWind from/ knotsBaromVisibWave heightAir tempDewpointWater temp
2017-Oct-18 05:13N 32°43' W 117°10'0 0.2
2017-Oct-18 04:53N 32°43' W 117°10'2 4.7
2017-Oct-18 04:25N 32°41' W 117°09'  
2017-Oct-15 03:14N 32°43' W 117°10'1 2.3
2017-Oct-15 03:00N 32°43' W 117°11'1 0.2
2017-Oct-14 23:21N 32°42' W 117°10'1 3.2
2017-Oct-14 23:01N 32°43' W 117°10'0 0.0
2017-Oct-14 22:29N 32°43' W 117°10'0 0.0
2017-Oct-14 22:00N 32°43' W 117°10'1 3.0
2017-Oct-14 21:30N 32°42' W 117°10'1 2.8
2017-Oct-14 21:01N 32°43' W 117°11'1 2.9
2017-Oct-14 20:31N 32°43' W 117°13'2 0.7
2017-Oct-14 17:28N 32°43' W 117°10'1 0.0
2017-Oct-14 06:46N 32°43' W 117°11'0 0.0
2017-Oct-14 05:54N 32°43' W 117°11'2 4.3
2017-Oct-14 05:24N 32°41' W 117°09'3 7.0
2017-Oct-14 04:59N 32°43' W 117°12'1 2.3
2017-Oct-14 04:30N 32°43' W 117°13'2 3.8
2017-Oct-14 03:58N 32°43' W 117°10'0 0.0
2017-Oct-14 03:21N 32°43' W 117°10'0 0.4
2017-Oct-14 02:54N 32°43' W 117°11'2 3.8
2017-Oct-14 02:30N 32°42' W 117°09'2 3.3
2017-Oct-14 02:00N 32°43' W 117°11'2 4.2
2017-Oct-14 01:30N 32°43' W 117°13'3 5.2
2017-Oct-14 01:00N 32°43' W 117°10'0 0.0
2017-Oct-14 00:30N 32°43' W 117°10'2 4.3
2017-Oct-13 23:56N 32°41' W 117°09'2 3.9
2017-Oct-13 23:30N 32°42' W 117°10'1 1.5
2017-Oct-13 22:56N 32°43' W 117°11'3 6.7
2017-Oct-13 22:30N 32°42' W 117°14'3 3.4
2017-Oct-13 21:42N 32°43' W 117°11'2 8.7
2017-Oct-13 21:30N 32°42' W 117°09'1 1.0
2017-Oct-13 20:59N 32°42' W 117°10'1 2.1
2017-Oct-13 20:25N 32°43' W 117°11'3 6.6
2017-Oct-13 20:00N 32°42' W 117°14'3 4.2
2017-Oct-13 19:20N 32°43' W 117°10'3 4.3
2017-Oct-13 18:42N 32°41' W 117°08'310.2
2017-Oct-13 18:27N 32°42' W 117°11'0 1.0
2017-Oct-13 18:00N 32°43' W 117°11'3 5.9
2017-Oct-13 17:30N 32°42' W 117°14'3 0.2
2017-Oct-13 04:51N 32°43' W 117°11'3 4.1
2017-Oct-13 04:09N 32°41' W 117°09'1 5.2
2017-Oct-13 04:00N 32°41' W 117°09'2 4.1
2017-Oct-13 03:30N 32°43' W 117°11'2 4.4
2017-Oct-13 03:00N 32°42' W 117°14'1 2.4
2017-Oct-13 02:30N 32°43' W 117°13'4 0.2
2017-Oct-12 04:06N 32°41' W 117°08'1 6.5
2017-Oct-12 04:00N 32°41' W 117°09'1 1.7
2017-Oct-12 03:23N 32°42' W 117°10'3 7.6
2017-Oct-12 03:00N 32°43' W 117°13'0 0.2
2017-Oct-12 02:30N 32°43' W 117°13'2 0.1
2017-Oct-10 23:51N 32°43' W 117°11'0 0.0
2017-Oct-10 05:12N 32°43' W 117°11'2 8.2
2017-Oct-10 04:55N 32°41' W 117°09'0 0.0
2017-Oct-10 02:28N 32°41' W 117°09'4 1.3
2017-Oct-09 23:39N 32°38' W 117°08'4 8.1
2017-Oct-09 23:12N 32°41' W 117°09'2 0.1
2017-Oct-09 04:51N 32°43' W 117°11'2 4.0
2017-Oct-09 04:16N 32°41' W 117°09'0 0.5
2017-Oct-09 03:59N 32°41' W 117°09'0 0.8
2017-Oct-09 03:25N 32°42' W 117°09'2 5.8
2017-Oct-09 03:00N 32°43' W 117°12'1 1.1
2017-Oct-09 02:30N 32°43' W 117°12'1 0.2
2017-Oct-08 19:08N 32°43' W 117°11'210.1
2017-Oct-08 18:57N 32°42' W 117°09'0 0.6
2017-Oct-08 18:28N 32°42' W 117°10'3 5.9
2017-Oct-08 18:00N 32°43' W 117°12'2 0.1
2017-Oct-08 06:39N 32°43' W 117°11'0 1.5
2017-Oct-08 06:25N 32°43' W 117°10'0 0.0
2017-Oct-08 05:55N 32°43' W 117°10'3 6.1
2017-Oct-08 05:30N 32°41' W 117°09'  

Dump ship's entire track history